LiveATC.Net - Listen to live air traffic control over the Internet!


ICAO: KRAC  IATA: RAC   Airport: John H Batten Airport
City: Racine   State/Province: Wisconsin
Country: United States   Continent: North America
KRAC METAR Weather: KRAC 202053Z AUTO 17015G21KT 10SM CLR 27/21 A2986 RMK AO2 SLP106 T02720211 56020
KRAC Flight Activity (FlightAware)
KRAC Airport Info   (AirNav) (iFlightPlanner)
KRAC VFR Sectional Chart   (iFlightPlanner) 
KRAC IFR Low Chart   (iFlightPlanner) 
KRAC CTAF
Feed Status: UP   Listeners: 0
Listen right in your browser - requires Flash (in browser, requires Flash)
Click here to listen with your own player (launches your MP3 player)
KRAC CTAF Audio Archives
FacilityFrequency
Racine CTAF123.075

Sponsored by: Racine Sport Flyers

NOTICE

Unauthorized use prohibited. See LiveATC.net Terms of Service


Find LiveATC Audio Streams


Airport/ARTCC Code

Frequency Search
(e.g., 124.400, 128.75)
Site-wide search
 


Browse LiveATC Feeds
LiveATC Coverage Map
Top 50 LiveATC Feeds
Bad Weather Areas

LiveATC FAQ
Offer a LiveATC Feed
Contact LiveATC.net
Press Inquiries

LiveATC on iPhone
LiveATC on Android

Windows Phone
Windows 8/10

LiveATC Mobile
(Mobile browser)

ATC Audio Archives
Interesting Recordings

LiveATC Forums


Home Page
About LiveATC.net
Make a Donation
LiveATC Store

Terms of Use
Privacy Policy

Canadian Air Freqs

AIRMETs/SIGMETs

FAA Airport Status
Nat'l Airspace Status
Arrival Demand Charts


Server Software By:
Icecast.org
Liquidsoap